Time;durP1;ratioP1;P1;durP2;ratioP2;P2;SDS_P1;SDS_P2;PMS_P1;PMS_P2;Temp;Humidity;BMP_temperature;BMP_pressure;BME280_temperature;BME280_humidity;BME280_pressure;Samples;Min_cycle;Max_cycle;Signal;HPM_P1;HPM_P2
2022/06/05 00:00:21;;;;;;;8.77;5.30;;;20.00;99.90;;;;;;5026521;28;20342;-74
2022/06/05 00:02:52;;;;;;;5.78;5.18;;;20.00;99.90;;;;;;5018706;28;20215;-75
2022/06/05 00:05:18;;;;;;;5.90;5.30;;;20.00;99.90;;;;;;5027653;28;20033;-75
2022/06/05 00:07:58;;;;;;;8.27;5.35;;;19.90;99.90;;;;;;5027263;28;20390;-75
2022/06/05 00:10:32;;;;;;;7.07;5.72;;;19.90;99.90;;;;;;5027059;28;20390;-75
2022/06/05 00:13:28;;;;;;;7.32;5.10;;;19.80;99.90;;;;;;5023080;28;20033;-74
2022/06/05 00:15:54;;;;;;;9.95;6.10;;;19.80;99.90;;;;;;5005683;28;20569;-74
2022/06/05 00:18:19;;;;;;;8.27;5.75;;;19.80;99.90;;;;;;5021435;28;20022;-73
2022/06/05 00:20:45;;;;;;;6.50;4.85;;;19.80;99.90;;;;;;5019973;28;20021;-75
2022/06/05 00:23:11;;;;;;;7.03;5.68;;;19.70;99.90;;;;;;5020801;28;20029;-74
2022/06/05 00:25:53;;;;;;;6.57;5.38;;;19.60;99.90;;;;;;5023736;28;20505;-75
2022/06/05 00:28:31;;;;;;;7.85;5.18;;;19.70;99.90;;;;;;5027260;28;20072;-74
2022/06/05 00:31:12;;;;;;;11.20;6.18;;;19.60;99.90;;;;;;5023381;28;20474;-74
2022/06/05 00:33:40;;;;;;;6.13;5.32;;;19.60;99.90;;;;;;5024805;28;20027;-75
2022/06/05 00:36:30;;;;;;;7.60;5.60;;;19.60;99.90;;;;;;5021266;28;20029;-74
2022/06/05 00:39:19;;;;;;;6.95;5.78;;;19.50;99.90;;;;;;5031396;28;20509;-74
2022/06/05 00:42:04;;;;;;;7.93;5.63;;;19.50;99.90;;;;;;5024106;28;20024;-74
2022/06/05 00:45:01;;;;;;;8.30;5.88;;;19.50;99.90;;;;;;5024489;28;20060;-74
2022/06/05 00:47:30;;;;;;;9.30;6.40;;;19.50;99.90;;;;;;5015630;28;20620;-75
2022/06/05 00:50:04;;;;;;;9.50;5.50;;;19.50;99.90;;;;;;5025738;28;20386;-73
2022/06/05 00:52:33;;;;;;;9.02;5.80;;;19.50;99.90;;;;;;5025123;28;20049;-74
2022/06/05 00:54:59;;;;;;;6.47;5.63;;;19.50;99.90;;;;;;5026995;28;20029;-75
2022/06/05 00:57:31;;;;;;;7.57;5.75;;;19.40;99.90;;;;;;5027092;28;20408;-75
2022/06/05 00:59:58;;;;;;;7.30;6.32;;;19.40;99.90;;;;;;5045480;28;20040;-75
2022/06/05 01:02:24;;;;;;;7.68;6.25;;;19.40;99.90;;;;;;5026924;28;20034;-74
2022/06/05 01:04:53;;;;;;;8.80;5.85;;;19.40;99.90;;;;;;5026280;28;20037;-75
2022/06/05 01:07:20;;;;;;;10.23;6.30;;;19.40;99.90;;;;;;5027592;28;20330;-75
2022/06/05 01:09:49;;;;;;;9.82;6.50;;;19.40;99.90;;;;;;5045244;28;20044;-73
2022/06/05 01:12:40;;;;;;;14.57;6.75;;;19.30;99.90;;;;;;5026582;28;20125;-74
2022/06/05 01:15:25;;;;;;;6.95;6.00;;;19.30;99.90;;;;;;5036505;28;20078;-73
2022/06/05 01:18:05;;;;;;;7.85;6.45;;;19.30;99.90;;;;;;5035660;28;20030;-73
2022/06/05 01:20:52;;;;;;;8.80;6.07;;;19.30;99.90;;;;;;5033993;28;20029;-73
2022/06/05 01:23:44;;;;;;;7.85;6.28;;;19.30;99.90;;;;;;5033955;28;20040;-73
2022/06/05 01:26:16;;;;;;;8.75;7.25;;;19.30;99.90;;;;;;5032622;28;20057;-73
2022/06/05 01:29:01;;;;;;;8.65;7.65;;;19.20;99.90;;;;;;5033253;28;20421;-72
2022/06/05 01:31:36;;;;;;;8.75;7.10;;;19.20;99.90;;;;;;5032474;28;20107;-73
2022/06/05 01:34:23;;;;;;;10.88;7.80;;;19.20;99.90;;;;;;5031047;28;20099;-71
2022/06/05 01:37:04;;;;;;;11.10;8.73;;;19.20;99.90;;;;;;5031511;28;20379;-73
2022/06/05 01:39:42;;;;;;;10.63;9.15;;;19.10;99.90;;;;;;5033088;28;20025;-73
2022/06/05 01:42:14;;;;;;;10.73;9.05;;;19.10;99.90;;;;;;5032284;28;20026;-73
2022/06/05 01:44:44;;;;;;;12.43;8.10;;;19.10;99.90;;;;;;5033888;28;20429;-72
2022/06/05 01:47:21;;;;;;;11.55;8.20;;;19.00;99.90;;;;;;5029165;28;20022;-73
2022/06/05 01:50:13;;;;;;;11.40;7.88;;;19.00;99.90;;;;;;5033395;28;20037;-72
2022/06/05 01:52:47;;;;;;;8.93;7.90;;;19.00;99.90;;;;;;5028398;28;20175;-72
2022/06/05 01:55:18;;;;;;;8.52;7.32;;;19.00;99.90;;;;;;5037125;28;20039;-73
2022/06/05 01:57:44;;;;;;;11.60;7.68;;;19.10;99.90;;;;;;5026453;28;20038;-73
2022/06/05 02:00:17;;;;;;;8.40;7.10;;;19.00;99.90;;;;;;5034487;28;20112;-73
2022/06/05 02:03:04;;;;;;;10.32;7.65;;;19.10;99.90;;;;;;5035081;28;20116;-73
2022/06/05 02:05:48;;;;;;;11.32;7.18;;;19.10;99.90;;;;;;5033984;28;20041;-73
2022/06/05 02:08:45;;;;;;;11.05;7.80;;;19.10;99.90;;;;;;5032722;28;20475;-72
2022/06/05 02:11:23;;;;;;;9.45;7.68;;;19.10;99.90;;;;;;5030421;28;20075;-72
2022/06/05 02:13:50;;;;;;;10.63;8.05;;;19.00;99.90;;;;;;5032055;28;20026;-73
2022/06/05 02:16:17;;;;;;;10.18;7.45;;;18.90;99.90;;;;;;5030737;28;20033;-73
2022/06/05 02:18:43;;;;;;;10.27;7.38;;;18.90;99.90;;;;;;5034090;28;20174;-72
2022/06/05 02:21:09;;;;;;;9.07;7.50;;;18.80;99.90;;;;;;5032083;28;20116;-72
2022/06/05 02:23:37;;;;;;;9.50;7.38;;;18.80;99.90;;;;;;5029659;28;20065;-73
2022/06/05 02:26:05;;;;;;;8.73;7.60;;;18.70;99.90;;;;;;5031213;28;20025;-72
2022/06/05 02:28:31;;;;;;;10.10;6.97;;;18.70;99.90;;;;;;5033849;28;20026;-72
2022/06/05 02:31:07;;;;;;;9.73;7.75;;;18.60;99.90;;;;;;5033094;28;20060;-72
2022/06/05 02:34:00;;;;;;;8.45;7.05;;;18.60;99.90;;;;;;5033815;28;20030;-73
2022/06/05 02:36:36;;;;;;;9.68;7.20;;;18.70;99.90;;;;;;5027638;28;20091;-73
2022/06/05 02:39:04;;;;;;;10.25;7.72;;;18.60;99.90;;;;;;5033711;28;20022;-73
2022/06/05 02:41:53;;;;;;;8.07;7.10;;;18.70;99.90;;;;;;5046120;28;20052;-73
2022/06/05 02:44:49;;;;;;;12.52;7.57;;;18.70;99.90;;;;;;5029588;28;20461;-72
2022/06/05 02:47:49;;;;;;;8.30;7.13;;;18.70;99.90;;;;;;5035873;28;20024;-72
2022/06/05 02:50:22;;;;;;;10.43;7.82;;;18.70;99.90;;;;;;5047781;28;20102;-73
2022/06/05 02:52:51;;;;;;;11.63;7.73;;;18.50;99.90;;;;;;5048189;28;20025;-73
2022/06/05 02:55:20;;;;;;;8.75;7.72;;;18.50;99.90;;;;;;5032937;28;20022;-73
2022/06/05 02:57:46;;;;;;;10.77;7.63;;;18.40;99.90;;;;;;5030117;28;20112;-73
2022/06/05 03:00:19;;;;;;;10.77;7.70;;;18.40;99.90;;;;;;5035317;28;20068;-73
2022/06/05 03:05:29;;;;;;;12.15;8.85;;;18.40;99.90;;;;;;5036396;28;20086;-73
2022/06/05 03:07:55;;;;;;;13.30;8.38;;;18.40;99.90;;;;;;5035861;28;20037;-73
2022/06/05 03:10:21;;;;;;;9.63;8.23;;;18.30;99.90;;;;;;5047939;28;20032;-73
2022/06/05 03:12:46;;;;;;;11.73;8.88;;;18.30;99.90;;;;;;5031811;28;20075;-73
2022/06/05 03:15:15;;;;;;;12.65;8.50;;;18.30;99.90;;;;;;5029417;28;20467;-72
2022/06/05 03:17:41;;;;;;;11.82;8.63;;;18.20;99.90;;;;;;5032370;28;20482;-73
2022/06/05 03:20:08;;;;;;;11.63;9.38;;;18.20;99.90;;;;;;5033885;28;20024;-73
2022/06/05 03:22:40;;;;;;;10.90;8.48;;;18.10;99.90;;;;;;5030896;28;20025;-73
2022/06/05 03:25:07;;;;;;;11.25;9.23;;;18.20;99.90;;;;;;5026710;28;20029;-72
2022/06/05 03:27:32;;;;;;;12.38;9.32;;;18.20;99.90;;;;;;5032591;28;20116;-72
2022/06/05 03:29:59;;;;;;;13.13;9.35;;;18.10;99.90;;;;;;5029539;28;20197;-72
2022/06/05 03:32:26;;;;;;;14.02;9.50;;;18.10;99.90;;;;;;5032975;28;20500;-72
2022/06/05 03:34:52;;;;;;;12.30;9.95;;;18.10;99.90;;;;;;5032445;28;20024;-73
2022/06/05 03:37:19;;;;;;;10.98;9.27;;;18.10;99.90;;;;;;5037115;28;20025;-72
2022/06/05 03:39:46;;;;;;;11.48;8.50;;;18.10;99.90;;;;;;5046660;28;20074;-73
2022/06/05 03:42:12;;;;;;;12.02;9.40;;;18.10;99.90;;;;;;5030136;28;20401;-72
2022/06/05 03:44:39;;;;;;;11.20;9.80;;;18.10;99.90;;;;;;5031596;28;20037;-73
2022/06/05 03:47:06;;;;;;;12.88;9.27;;;18.10;99.90;;;;;;5040649;28;20493;-73
2022/06/05 03:49:33;;;;;;;13.63;10.15;;;18.10;99.90;;;;;;5034227;28;20108;-72
2022/06/05 03:51:58;;;;;;;12.07;9.20;;;18.10;99.90;;;;;;5034559;28;20040;-73
2022/06/05 03:54:27;;;;;;;12.80;8.98;;;18.10;99.90;;;;;;5032533;28;20017;-73
2022/06/05 03:56:53;;;;;;;13.18;9.00;;;18.20;99.90;;;;;;5035144;28;20032;-73
2022/06/05 03:59:18;;;;;;;10.55;8.45;;;18.20;99.90;;;;;;5038205;28;20386;-73
2022/06/05 04:01:44;;;;;;;12.48;9.88;;;18.20;99.90;;;;;;5031864;28;20022;-73
2022/06/05 04:04:13;;;;;;;11.30;9.60;;;18.30;99.90;;;;;;5029235;28;20036;-72
2022/06/05 04:06:38;;;;;;;11.25;9.63;;;18.30;99.90;;;;;;5032556;28;20033;-72
2022/06/05 04:09:06;;;;;;;12.25;9.52;;;18.30;99.90;;;;;;5034149;28;20013;-72
2022/06/05 04:11:34;;;;;;;11.85;9.38;;;18.30;99.90;;;;;;5034935;28;20141;-72
2022/06/05 04:14:00;;;;;;;13.07;10.65;;;18.30;99.90;;;;;;5031761;28;20028;-72
2022/06/05 04:16:29;;;;;;;12.02;10.02;;;18.30;99.90;;;;;;5027776;28;20026;-74
2022/06/05 04:18:57;;;;;;;14.18;9.98;;;18.40;99.90;;;;;;5028940;28;20458;-73
2022/06/05 04:21:25;;;;;;;9.95;8.95;;;18.30;99.90;;;;;;5031603;28;20588;-72
2022/06/05 04:23:52;;;;;;;13.68;10.30;;;18.30;99.90;;;;;;5027226;28;20541;-73
2022/06/05 04:26:24;;;;;;;11.73;8.85;;;18.30;99.90;;;;;;5031960;28;20040;-74
2022/06/05 04:28:53;;;;;;;12.55;9.45;;;18.30;99.90;;;;;;5029768;28;20047;-73
2022/06/05 04:31:23;;;;;;;10.85;8.73;;;18.30;99.90;;;;;;5031523;28;20084;-73
2022/06/05 04:33:53;;;;;;;13.23;9.35;;;18.30;99.90;;;;;;5026550;28;20092;-73
2022/06/05 04:36:20;;;;;;;10.85;8.50;;;18.30;99.90;;;;;;5031720;28;20026;-72
2022/06/05 04:38:47;;;;;;;9.70;8.55;;;18.20;99.90;;;;;;5031518;28;20092;-73
2022/06/05 04:41:13;;;;;;;11.02;8.75;;;18.30;99.90;;;;;;5029098;28;20436;-73
2022/06/05 04:43:39;;;;;;;11.07;8.63;;;18.30;99.90;;;;;;5031292;28;20025;-73
2022/06/05 04:46:05;;;;;;;12.98;8.60;;;18.40;99.90;;;;;;5031513;28;20040;-73
2022/06/05 04:48:32;;;;;;;11.85;8.57;;;18.40;99.90;;;;;;5027618;28;20040;-73
2022/06/05 04:50:58;;;;;;;10.57;8.90;;;18.40;99.90;;;;;;5033415;28;20055;-73
2022/06/05 04:53:24;;;;;;;12.50;9.10;;;18.40;99.90;;;;;;5047503;28;20025;-73
2022/06/05 04:55:49;;;;;;;12.75;8.25;;;18.40;99.90;;;;;;5034265;28;20542;-73
2022/06/05 04:58:15;;;;;;;9.40;8.50;;;18.40;99.90;;;;;;5031957;28;20033;-73
2022/06/05 05:00:46;;;;;;;9.88;8.15;;;18.40;99.90;;;;;;5042787;28;20060;-71
2022/06/05 05:03:12;;;;;;;11.00;9.32;;;18.40;99.90;;;;;;5035519;28;20022;-71
2022/06/05 05:05:38;;;;;;;10.95;8.88;;;18.40;99.90;;;;;;5036980;28;20379;-71
2022/06/05 05:08:07;;;;;;;12.43;8.93;;;18.40;99.90;;;;;;5030374;28;20389;-71
2022/06/05 05:10:33;;;;;;;11.40;8.02;;;18.40;99.90;;;;;;5026660;28;20506;-71
2022/06/05 05:12:58;;;;;;;14.43;8.45;;;18.40;99.90;;;;;;5035514;28;20048;-71
2022/06/05 05:15:24;;;;;;;13.27;9.00;;;18.40;99.90;;;;;;5030417;28;20026;-71
2022/06/05 05:17:50;;;;;;;16.23;11.18;;;18.50;99.90;;;;;;5039083;28;20350;-71
2022/06/05 05:20:16;;;;;;;19.58;10.70;;;18.40;99.90;;;;;;5033064;28;20426;-71
2022/06/05 05:22:42;;;;;;;23.88;11.90;;;18.10;99.90;;;;;;5026151;28;20029;-71
2022/06/05 05:25:10;;;;;;;23.63;12.85;;;17.70;99.90;;;;;;5027574;28;20033;-72
2022/06/05 05:27:39;;;;;;;22.65;12.93;;;17.50;99.90;;;;;;5031206;28;20040;-72
2022/06/05 05:30:09;;;;;;;20.63;12.82;;;17.50;99.90;;;;;;5030058;28;20018;-71
2022/06/05 05:32:35;;;;;;;22.80;13.13;;;17.30;99.90;;;;;;5026231;28;20030;-71
2022/06/05 05:35:01;;;;;;;23.35;14.45;;;17.30;99.90;;;;;;5030349;28;20032;-71
2022/06/05 05:37:26;;;;;;;21.40;13.55;;;17.20;99.90;;;;;;5030347;28;20033;-71
2022/06/05 05:42:36;;;;;;;18.50;13.52;;;17.10;99.90;;;;;;5022438;28;20954;-70
2022/06/05 05:45:05;;;;;;;16.00;11.85;;;17.10;99.90;;;;;;5026205;28;20037;-69
2022/06/05 05:47:31;;;;;;;14.65;10.27;;;17.10;99.90;;;;;;5023178;28;20029;-71
2022/06/05 05:50:05;;;;;;;12.02;6.45;;;17.00;99.90;;;;;;5021766;28;20502;-71
2022/06/05 05:52:31;;;;;;;9.45;6.45;;;17.00;99.90;;;;;;5023500;28;20030;-71
2022/06/05 05:54:57;;;;;;;10.70;6.95;;;16.90;99.90;;;;;;5029109;28;20030;-70
2022/06/05 05:57:23;;;;;;;9.60;7.20;;;16.80;99.90;;;;;;5029983;28;20030;-69
2022/06/05 05:59:49;;;;;;;10.73;6.00;;;16.80;99.90;;;;;;5022982;28;20025;-70
2022/06/05 06:02:21;;;;;;;11.77;4.13;;;16.80;99.90;;;;;;5028220;28;20105;-70
2022/06/05 06:04:51;;;;;;;6.78;4.60;;;16.70;99.90;;;;;;5043616;28;20083;-71
2022/06/05 06:07:17;;;;;;;12.52;6.28;;;16.60;99.90;;;;;;5030090;28;20506;-70
2022/06/05 06:09:43;;;;;;;8.10;4.60;;;16.50;99.90;;;;;;5028041;28;20033;-70
2022/06/05 06:12:10;;;;;;;6.32;3.35;;;16.50;99.90;;;;;;5028397;28;20034;-70
2022/06/05 06:14:36;;;;;;;4.55;2.83;;;16.30;99.90;;;;;;5031696;28;20105;-70
2022/06/05 06:17:03;;;;;;;3.72;2.90;;;16.20;99.90;;;;;;5029636;28;20112;-71
2022/06/05 06:19:29;;;;;;;4.40;2.28;;;16.20;99.90;;;;;;5027421;28;20026;-71
2022/06/05 06:22:00;;;;;;;4.35;1.92;;;16.20;99.90;;;;;;5032129;28;20108;-71
2022/06/05 06:24:26;;;;;;;4.35;2.17;;;16.20;99.90;;;;;;5029757;28;20433;-71
2022/06/05 06:26:51;;;;;;;6.35;2.35;;;16.10;99.90;;;;;;5023813;28;20094;-70
2022/06/05 06:29:17;;;;;;;5.43;2.30;;;16.10;99.90;;;;;;5027440;28;20572;-71
2022/06/05 06:31:43;;;;;;;2.58;1.63;;;16.10;99.90;;;;;;5040481;28;20032;-71
2022/06/05 06:34:09;;;;;;;4.03;1.90;;;16.10;99.90;;;;;;5026310;28;20040;-70
2022/06/05 06:36:44;;;;;;;4.47;2.17;;;16.10;99.90;;;;;;5031795;28;20026;-71
2022/06/05 06:39:09;;;;;;;4.82;1.63;;;16.20;99.90;;;;;;5030701;28;20021;-70
2022/06/05 06:41:35;;;;;;;2.90;1.63;;;16.20;99.90;;;;;;5029878;28;20512;-71
2022/06/05 06:44:06;;;;;;;3.50;1.70;;;16.20;99.90;;;;;;5025625;28;20513;-71
2022/06/05 06:46:33;;;;;;;3.30;0.95;;;16.00;99.90;;;;;;5031309;28;20090;-71
2022/06/05 06:48:58;;;;;;;2.58;1.00;;;15.90;99.90;;;;;;5031210;28;20112;-71
2022/06/05 06:51:24;;;;;;;2.42;1.20;;;15.50;99.90;;;;;;5030343;28;20175;-70
2022/06/05 06:53:50;;;;;;;4.57;1.15;;;15.40;99.90;;;;;;5024777;28;20052;-71
2022/06/05 06:56:19;;;;;;;9.20;0.93;;;15.40;99.90;;;;;;5020886;28;20604;-71
2022/06/05 06:58:45;;;;;;;2.10;1.10;;;15.40;99.90;;;;;;5022003;28;20660;-72
2022/06/05 07:01:12;;;;;;;3.97;1.23;;;15.50;99.90;;;;;;5021924;28;20056;-72
2022/06/05 07:03:39;;;;;;;5.30;0.93;;;15.60;99.90;;;;;;5048543;28;20026;-72
2022/06/05 07:06:08;;;;;;;2.28;1.30;;;15.70;99.90;;;;;;5028704;28;20474;-72
2022/06/05 07:08:34;;;;;;;2.53;1.20;;;15.80;99.90;;;;;;5022856;28;20928;-73
2022/06/05 07:11:00;;;;;;;4.45;1.58;;;15.90;99.90;;;;;;5023996;28;20029;-72
2022/06/05 07:13:26;;;;;;;4.00;1.30;;;15.90;99.90;;;;;;5026257;28;20033;-72
2022/06/05 07:15:52;;;;;;;4.32;1.48;;;15.90;99.90;;;;;;5023957;28;20032;-72
2022/06/05 07:18:19;;;;;;;7.32;1.40;;;16.00;99.90;;;;;;5029090;28;20086;-72
2022/06/05 07:20:45;;;;;;;3.67;1.80;;;16.10;99.90;;;;;;5021024;28;20209;-72
2022/06/05 07:23:12;;;;;;;6.57;1.70;;;16.10;99.90;;;;;;5023761;28;20113;-71
2022/06/05 07:25:43;;;;;;;2.88;1.20;;;16.10;99.90;;;;;;5026532;28;20036;-72
2022/06/05 07:28:09;;;;;;;3.25;1.80;;;16.10;99.90;;;;;;5022035;28;20045;-71
2022/06/05 07:30:35;;;;;;;2.88;1.13;;;16.20;99.90;;;;;;5025926;28;20033;-72
2022/06/05 07:33:00;;;;;;;2.00;1.30;;;16.20;99.90;;;;;;5030089;28;20022;-74
2022/06/05 07:35:26;;;;;;;2.97;1.67;;;16.40;99.90;;;;;;5030648;28;20037;-73
2022/06/05 07:37:52;;;;;;;4.38;1.67;;;16.40;99.90;;;;;;5032325;28;20044;-73
2022/06/05 07:40:17;;;;;;;1.33;1.17;;;16.50;99.90;;;;;;5027699;28;20366;-73
2022/06/05 07:42:44;;;;;;;4.40;1.50;;;16.60;99.90;;;;;;5028852;28;20036;-73
2022/06/05 07:45:13;;;;;;;4.97;1.52;;;16.80;99.90;;;;;;5027135;28;20605;-72
2022/06/05 07:47:40;;;;;;;2.60;1.70;;;16.90;99.90;;;;;;5028489;28;20036;-73
2022/06/05 07:50:06;;;;;;;3.55;1.52;;;17.00;99.90;;;;;;5043369;28;20041;-73
2022/06/05 07:55:16;;;;;;;4.03;1.35;;;17.20;99.90;;;;;;5021842;28;20556;-72
2022/06/05 07:57:41;;;;;;;4.43;1.38;;;17.40;99.90;;;;;;5025349;28;20064;-72
2022/06/05 08:00:09;;;;;;;3.63;1.10;;;17.50;99.90;;;;;;5018867;28;20641;-72
2022/06/05 08:02:36;;;;;;;2.50;1.20;;;17.60;99.90;;;;;;5024905;28;20029;-72
2022/06/05 08:05:03;;;;;;;3.20;1.00;;;17.70;99.90;;;;;;5018638;28;20022;-72
2022/06/05 08:07:30;;;;;;;3.30;1.20;;;17.90;99.90;;;;;;5020313;28;20105;-73
2022/06/05 08:09:57;;;;;;;5.00;1.38;;;18.00;99.90;;;;;;5025694;28;20040;-73
2022/06/05 08:12:25;;;;;;;4.10;1.30;;;18.20;99.90;;;;;;5020587;28;20068;-72
2022/06/05 08:14:52;;;;;;;3.45;1.40;;;18.20;99.90;;;;;;5028316;28;20021;-72
2022/06/05 08:17:25;;;;;;;5.85;1.55;;;18.40;99.90;;;;;;5028046;28;20034;-72
2022/06/05 08:19:51;;;;;;;4.75;1.08;;;18.50;99.90;;;;;;5027980;28;20021;-72
2022/06/05 08:22:21;;;;;;;4.95;1.02;;;18.70;99.90;;;;;;5025920;28;20032;-73
2022/06/05 08:24:51;;;;;;;2.28;0.98;;;18.60;99.90;;;;;;5024474;28;20060;-72
2022/06/05 08:27:20;;;;;;;2.95;1.20;;;18.60;99.90;;;;;;5029395;28;20041;-73
2022/06/05 08:29:45;;;;;;;1.73;0.75;;;18.70;99.90;;;;;;5026774;28;20112;-73
2022/06/05 08:32:13;;;;;;;1.40;0.80;;;18.90;99.90;;;;;;5030513;28;20141;-73
2022/06/05 08:34:39;;;;;;;3.53;0.95;;;19.10;99.90;;;;;;5029550;28;20125;-72
2022/06/05 08:42:39;;;;;;;;;;;19.50;99.90;;;;;;5026236;28;20036;-72
2022/06/05 08:45:12;;;;;;;3.17;0.80;;;19.70;99.90;;;;;;5031368;28;19963;-73
2022/06/05 08:48:03;;;;;;;5.97;1.23;;;19.90;99.90;;;;;;5028006;28;20087;-72
2022/06/05 08:50:35;;;;;;;2.10;1.00;;;20.00;99.90;;;;;;5026724;28;20022;-72
2022/06/05 08:53:27;;;;;;;3.22;1.10;;;20.10;99.90;;;;;;5030322;28;20091;-72
2022/06/05 08:55:55;;;;;;;3.78;1.40;;;20.30;99.90;;;;;;5032647;28;20474;-71
2022/06/05 08:58:44;;;;;;;3.08;1.60;;;20.50;99.90;;;;;;5028333;28;20064;-72
2022/06/05 09:01:23;;;;;;;1.75;1.25;;;20.60;99.90;;;;;;5021360;28;20112;-73
2022/06/05 09:04:00;;;;;;;8.88;2.10;;;20.80;99.90;;;;;;5026272;28;20033;-72
2022/06/05 09:06:39;;;;;;;4.20;1.60;;;20.90;99.90;;;;;;5028867;28;20405;-73
2022/06/05 09:09:15;;;;;;;3.67;1.90;;;21.20;99.90;;;;;;5028363;28;20036;-73
2022/06/05 09:12:11;;;;;;;6.30;1.90;;;21.40;99.90;;;;;;5024631;28;20037;-72
2022/06/05 09:14:46;;;;;;;4.13;1.73;;;21.80;99.90;;;;;;5025251;28;20533;-72
2022/06/05 09:17:18;;;;;;;5.22;1.95;;;22.00;99.90;;;;;;5028155;28;20075;-72
2022/06/05 09:19:45;;;;;;;5.35;2.35;;;22.20;99.90;;;;;;5026632;28;20091;-72
2022/06/05 09:22:33;;;;;;;4.05;1.83;;;22.50;99.90;;;;;;5034987;28;20029;-72
2022/06/05 09:25:28;;;;;;;5.25;2.47;;;22.70;99.90;;;;;;5027472;28;20037;-73
2022/06/05 09:28:21;;;;;;;6.55;2.38;;;22.70;99.90;;;;;;5030076;28;20056;-72
2022/06/05 09:30:49;;;;;;;6.13;2.35;;;22.60;99.90;;;;;;5032012;28;20435;-72
2022/06/05 09:33:27;;;;;;;5.13;2.42;;;22.60;99.90;;;;;;5027067;28;20030;-72
2022/06/05 09:36:04;;;;;;;7.97;3.47;;;22.50;99.90;;;;;;5025357;28;20382;-73
2022/06/05 09:38:40;;;;;;;5.00;2.72;;;22.50;99.90;;;;;;5032669;28;20028;-72
2022/06/05 09:41:15;;;;;;;6.95;2.72;;;22.50;99.90;;;;;;5034405;28;20096;-72
2022/06/05 09:43:59;;;;;;;6.90;3.35;;;22.50;99.90;;;;;;5031583;28;20060;-72
2022/06/05 09:46:24;;;;;;;;;;;22.50;99.90;;;;;;5033861;28;20041;-73
2022/06/05 09:49:03;;;;;;;6.13;2.85;;;22.60;99.90;;;;;;5026563;28;20282;-72
2022/06/05 09:51:29;;;;;;;4.75;3.30;;;22.60;99.90;;;;;;5025514;28;20029;-72
2022/06/05 09:54:27;;;;;;;7.07;3.65;;;22.50;99.90;;;;;;5030178;28;20021;-72
2022/06/05 10:00:08;;;;;;;8.35;3.58;;;22.40;99.90;;;;;;5032375;28;20524;-72
2022/06/05 10:02:36;;;;;;;7.32;3.28;;;22.20;99.90;;;;;;5032839;28;20056;-73
2022/06/05 10:05:14;;;;;;;5.43;3.20;;;22.10;99.90;;;;;;5034057;28;20537;-73
2022/06/05 10:07:48;;;;;;;6.00;3.20;;;22.00;99.90;;;;;;5035751;28;20030;-72
2022/06/05 10:10:18;;;;;;;;;;;22.00;99.90;;;;;;5049131;28;20052;-72
2022/06/05 10:12:50;;;;;;;5.93;3.30;;;21.90;99.90;;;;;;5036147;28;19909;-72
2022/06/05 10:15:31;;;;;;;6.78;3.83;;;21.90;99.90;;;;;;5035977;28;20049;-71
2022/06/05 10:18:01;;;;;;;7.00;3.72;;;21.70;99.90;;;;;;5033225;28;20018;-72
2022/06/05 10:20:45;;;;;;;6.53;3.13;;;21.60;99.90;;;;;;5027517;28;20121;-72
2022/06/05 10:23:25;;;;;;;11.63;3.67;;;21.50;99.90;;;;;;5027884;28;20037;-73
2022/06/05 10:26:05;;;;;;;5.18;3.60;;;21.40;99.90;;;;;;5039045;28;20022;-73
2022/06/05 10:28:35;;;;;;;7.45;3.55;;;21.20;99.90;;;;;;5030096;28;20045;-72
2022/06/05 10:31:05;;;;;;;6.45;3.60;;;21.10;99.90;;;;;;5032562;28;20025;-72
2022/06/05 10:33:31;;;;;;;4.72;3.30;;;21.00;99.90;;;;;;5033344;28;20120;-72
2022/06/05 10:36:08;;;;;;;7.22;4.35;;;20.90;99.90;;;;;;5037530;28;20538;-72
2022/06/05 10:38:37;;;;;;;6.00;3.38;;;20.80;99.90;;;;;;5031810;28;20108;-73
2022/06/05 10:41:15;;;;;;;7.55;3.40;;;20.70;99.90;;;;;;5028810;28;20021;-72
2022/06/05 10:43:42;;;;;;;4.57;2.47;;;20.60;99.90;;;;;;5033814;28;20025;-73
2022/06/05 10:46:21;;;;;;;8.80;3.00;;;20.50;99.90;;;;;;5033038;28;20167;-73
2022/06/05 10:49:02;;;;;;;7.25;2.78;;;20.40;99.90;;;;;;5026488;28;20037;-72
2022/06/05 10:51:53;;;;;;;6.13;2.58;;;20.30;99.90;;;;;;5026125;28;20084;-73
2022/06/05 10:54:35;;;;;;;4.18;2.47;;;20.20;99.90;;;;;;5028900;28;20025;-73
2022/06/05 10:57:13;;;;;;;8.07;3.20;;;20.10;99.90;;;;;;5019720;28;20419;-73
2022/06/05 10:59:45;;;;;;;4.75;3.00;;;20.00;99.90;;;;;;5022206;28;20496;-73
2022/06/05 11:02:30;;;;;;;4.47;2.55;;;20.00;99.90;;;;;;5033782;28;20021;-72
2022/06/05 11:05:07;;;;;;;7.95;2.80;;;19.90;99.90;;;;;;5027739;28;20044;-72
2022/06/05 11:07:36;;;;;;;7.40;2.50;;;19.80;99.90;;;;;;5045509;28;20055;-72
2022/06/05 11:13:51;;;;;;;19.75;2.88;;;19.60;99.90;;;;;;5026635;28;20556;-72
2022/06/05 11:16:42;;;;;;;7.03;3.20;;;19.50;99.90;;;;;;5012943;28;20057;-72
2022/06/05 11:19:30;;;;;;;7.40;3.60;;;19.50;99.90;;;;;;5028981;28;20030;-73
2022/06/05 11:21:59;;;;;;;6.60;3.38;;;19.50;99.90;;;;;;5027775;28;20029;-73
2022/06/05 11:24:29;;;;;;;6.65;3.25;;;19.70;99.90;;;;;;5023751;28;20444;-72
2022/06/05 11:27:10;;;;;;;7.68;2.95;;;19.90;99.90;;;;;;5022333;28;20025;-73
2022/06/05 11:29:42;;;;;;;6.35;3.58;;;20.10;99.90;;;;;;5022838;28;20034;-73
2022/06/05 11:32:35;;;;;;;5.60;2.83;;;20.30;99.90;;;;;;5026014;28;20045;-72
2022/06/05 11:35:15;;;;;;;6.70;2.90;;;20.50;99.90;;;;;;5025175;28;20459;-73
2022/06/05 11:37:45;;;;;;;6.82;2.50;;;20.70;99.90;;;;;;5025030;28;20040;-73
2022/06/05 11:40:19;;;;;;;3.40;2.47;;;20.70;99.90;;;;;;5023644;28;20045;-73
2022/06/05 11:43:03;;;;;;;8.73;3.08;;;20.80;99.90;;;;;;5028827;28;20035;-72
2022/06/05 11:45:54;;;;;;;4.70;2.80;;;20.80;99.90;;;;;;5037363;28;20160;-72
2022/06/05 11:48:29;;;;;;;5.38;3.15;;;20.90;99.90;;;;;;5023309;28;20394;-72
2022/06/05 11:51:19;;;;;;;6.57;2.60;;;21.00;99.90;;;;;;5022694;28;20029;-73
2022/06/05 11:53:48;;;;;;;5.53;2.47;;;21.10;99.90;;;;;;5023252;28;20028;-73
2022/06/05 11:56:41;;;;;;;11.85;3.72;;;21.20;99.90;;;;;;5040326;28;20029;-71
2022/06/05 11:59:20;;;;;;;6.03;3.20;;;21.20;99.90;;;;;;5016636;28;20152;-72
2022/06/05 12:02:22;;;;;;;10.80;4.38;;;21.20;99.90;;;;;;5023727;28;20036;-72
2022/06/05 12:05:22;;;;;;;4.80;2.80;;;21.10;99.90;;;;;;5029688;28;20045;-73
2022/06/05 12:07:50;;;;;;;8.10;3.20;;;21.10;99.90;;;;;;5025449;28;20510;-71
2022/06/05 12:10:23;;;;;;;6.18;2.45;;;21.10;99.90;;;;;;5024003;28;20025;-72
2022/06/05 12:12:56;;;;;;;4.35;2.72;;;21.10;99.90;;;;;;5017398;28;20095;-75
2022/06/05 12:15:25;;;;;;;4.03;3.08;;;21.00;99.90;;;;;;5020590;28;20013;-73
2022/06/05 12:18:08;;;;;;;5.38;2.15;;;21.00;99.90;;;;;;5021808;28;20398;-73
2022/06/05 12:20:58;;;;;;;7.05;2.35;;;21.00;99.90;;;;;;5028722;28;20022;-72
2022/06/05 12:23:34;;;;;;;6.60;2.13;;;21.10;99.90;;;;;;5029986;28;20104;-72
2022/06/05 12:26:13;;;;;;;5.38;2.80;;;21.30;99.90;;;;;;5027873;28;20029;-72
2022/06/05 12:28:51;;;;;;;6.10;2.60;;;21.40;99.90;;;;;;5024691;28;20029;-72
2022/06/05 12:31:28;;;;;;;4.40;2.58;;;21.50;99.90;;;;;;5028261;28;20021;-72
2022/06/05 12:33:59;;;;;;;3.35;2.15;;;21.60;99.90;;;;;;5016707;28;20500;-73
2022/06/05 12:36:47;;;;;;;8.13;2.70;;;21.60;99.90;;;;;;5024351;28;20032;-73
2022/06/05 12:39:26;;;;;;;4.25;2.50;;;21.60;99.90;;;;;;5020149;28;20021;-73
2022/06/05 12:42:08;;;;;;;5.05;2.22;;;21.60;99.90;;;;;;5024777;28;20023;-73
2022/06/05 12:44:41;;;;;;;6.30;2.38;;;21.70;99.90;;;;;;5027384;28;20021;-72
2022/06/05 12:47:35;;;;;;;3.95;2.10;;;21.70;99.90;;;;;;5027576;28;20029;-75
2022/06/05 12:50:21;;;;;;;6.00;2.28;;;21.80;99.90;;;;;;5028204;28;20017;-77
2022/06/05 12:53:02;;;;;;;4.28;1.80;;;21.90;99.90;;;;;;5043010;28;20030;-75
2022/06/05 12:55:36;;;;;;;6.43;2.00;;;22.00;99.90;;;;;;5026948;28;20501;-75
2022/06/05 12:58:08;;;;;;;4.63;1.95;;;22.10;99.90;;;;;;5024687;28;20387;-75
2022/06/05 13:01:00;;;;;;;5.90;2.08;;;22.20;99.90;;;;;;5023972;28;20029;-74
2022/06/05 13:03:38;;;;;;;6.15;1.80;;;22.40;99.90;;;;;;5018331;28;20041;-78
2022/06/05 13:06:17;;;;;;;3.20;1.48;;;22.50;99.90;;;;;;5034699;28;20094;-74
2022/06/05 13:08:56;;;;;;;3.63;1.55;;;22.50;99.90;;;;;;5044300;28;20087;-75
2022/06/05 13:11:29;;;;;;;2.95;1.80;;;22.60;99.90;;;;;;5024167;28;20052;-75
2022/06/05 13:14:01;;;;;;;3.42;1.30;;;22.50;99.90;;;;;;5037638;28;20359;-74
2022/06/05 13:16:31;;;;;;;8.35;2.05;;;22.40;99.90;;;;;;5026919;28;20022;-75
2022/06/05 13:19:21;;;;;;;4.40;1.55;;;22.30;99.90;;;;;;5035987;28;20071;-74
2022/06/05 13:22:02;;;;;;;3.58;1.60;;;22.20;99.90;;;;;;5034732;28;20041;-75
2022/06/05 13:24:51;;;;;;;3.22;1.67;;;22.10;99.90;;;;;;5021215;28;20033;-76
2022/06/05 13:27:40;;;;;;;4.10;1.70;;;22.10;99.90;;;;;;5038862;28;20022;-74
2022/06/05 13:30:17;;;;;;;5.05;1.42;;;22.10;99.90;;;;;;5001376;28;20103;-75
2022/06/05 13:33:04;;;;;;;4.22;1.80;;;22.10;99.90;;;;;;5032822;28;20860;-75